sensor_id;sensor_type;location;lat;lon;timestamp;P1;durP1;ratioP1;P2;durP2;ratioP2
23068;SDS011;11702;50.856;4.348;2022-11-24T00:00:24;17.30;;;3.42;;
23068;SDS011;11702;50.856;4.348;2022-11-24T00:02:50;21.08;;;3.20;;
23068;SDS011;11702;50.856;4.348;2022-11-24T00:05:16;19.08;;;3.30;;
23068;SDS011;11702;50.856;4.348;2022-11-24T00:07:41;20.30;;;3.88;;
23068;SDS011;11702;50.856;4.348;2022-11-24T00:10:07;13.18;;;3.38;;
23068;SDS011;11702;50.856;4.348;2022-11-24T00:12:33;19.25;;;3.40;;
23068;SDS011;11702;50.856;4.348;2022-11-24T00:14:59;23.77;;;3.83;;
23068;SDS011;11702;50.856;4.348;2022-11-24T00:17:24;17.08;;;4.30;;
23068;SDS011;11702;50.856;4.348;2022-11-24T00:19:50;21.02;;;3.95;;
23068;SDS011;11702;50.856;4.348;2022-11-24T00:22:15;18.23;;;4.78;;
23068;SDS011;11702;50.856;4.348;2022-11-24T00:24:41;26.65;;;4.72;;
23068;SDS011;11702;50.856;4.348;2022-11-24T00:27:07;16.92;;;3.72;;
23068;SDS011;11702;50.856;4.348;2022-11-24T00:29:32;19.45;;;4.68;;
23068;SDS011;11702;50.856;4.348;2022-11-24T00:31:58;18.55;;;4.43;;
23068;SDS011;11702;50.856;4.348;2022-11-24T00:34:23;19.98;;;3.92;;
23068;SDS011;11702;50.856;4.348;2022-11-24T00:36:49;24.35;;;4.28;;
23068;SDS011;11702;50.856;4.348;2022-11-24T00:39:15;13.93;;;3.58;;
23068;SDS011;11702;50.856;4.348;2022-11-24T00:41:41;20.60;;;3.85;;
23068;SDS011;11702;50.856;4.348;2022-11-24T00:44:07;16.65;;;3.85;;
23068;SDS011;11702;50.856;4.348;2022-11-24T00:46:33;29.30;;;5.25;;
23068;SDS011;11702;50.856;4.348;2022-11-24T00:48:59;25.13;;;5.15;;
23068;SDS011;11702;50.856;4.348;2022-11-24T00:51:25;22.17;;;4.07;;
23068;SDS011;11702;50.856;4.348;2022-11-24T00:53:53;25.67;;;4.35;;
23068;SDS011;11702;50.856;4.348;2022-11-24T00:56:20;22.98;;;4.57;;
23068;SDS011;11702;50.856;4.348;2022-11-24T00:58:46;27.45;;;4.30;;
23068;SDS011;11702;50.856;4.348;2022-11-24T01:01:16;20.15;;;4.10;;
23068;SDS011;11702;50.856;4.348;2022-11-24T01:03:47;15.98;;;3.83;;
23068;SDS011;11702;50.856;4.348;2022-11-24T01:06:14;28.95;;;4.68;;
23068;SDS011;11702;50.856;4.348;2022-11-24T01:08:41;22.67;;;4.75;;
23068;SDS011;11702;50.856;4.348;2022-11-24T01:11:15;21.50;;;5.18;;
23068;SDS011;11702;50.856;4.348;2022-11-24T01:13:41;28.70;;;4.05;;
23068;SDS011;11702;50.856;4.348;2022-11-24T01:16:17;24.10;;;4.85;;
23068;SDS011;11702;50.856;4.348;2022-11-24T01:18:55;23.13;;;4.63;;
23068;SDS011;11702;50.856;4.348;2022-11-24T01:21:21;25.60;;;4.07;;
23068;SDS011;11702;50.856;4.348;2022-11-24T01:23:47;20.90;;;4.38;;
23068;SDS011;11702;50.856;4.348;2022-11-24T01:26:15;23.08;;;4.65;;
23068;SDS011;11702;50.856;4.348;2022-11-24T01:28:42;21.25;;;4.78;;
23068;SDS011;11702;50.856;4.348;2022-11-24T01:31:08;31.25;;;5.10;;
23068;SDS011;11702;50.856;4.348;2022-11-24T01:33:35;27.10;;;5.13;;
23068;SDS011;11702;50.856;4.348;2022-11-24T01:36:01;29.45;;;4.78;;
23068;SDS011;11702;50.856;4.348;2022-11-24T01:38:28;27.92;;;4.75;;
23068;SDS011;11702;50.856;4.348;2022-11-24T01:41:04;14.30;;;4.22;;
23068;SDS011;11702;50.856;4.348;2022-11-24T01:43:34;22.83;;;4.60;;
23068;SDS011;11702;50.856;4.348;2022-11-24T01:46:19;19.65;;;3.92;;
23068;SDS011;11702;50.856;4.348;2022-11-24T01:48:59;22.38;;;4.55;;
23068;SDS011;11702;50.856;4.348;2022-11-24T01:51:25;32.22;;;4.82;;
23068;SDS011;11702;50.856;4.348;2022-11-24T01:53:58;25.20;;;5.20;;
23068;SDS011;11702;50.856;4.348;2022-11-24T01:56:29;27.33;;;5.53;;
23068;SDS011;11702;50.856;4.348;2022-11-24T01:58:56;27.38;;;5.47;;
23068;SDS011;11702;50.856;4.348;2022-11-24T02:01:25;20.50;;;4.68;;
23068;SDS011;11702;50.856;4.348;2022-11-24T02:03:51;27.83;;;5.82;;
23068;SDS011;11702;50.856;4.348;2022-11-24T02:06:26;24.33;;;4.88;;
23068;SDS011;11702;50.856;4.348;2022-11-24T02:09:02;23.65;;;5.18;;
23068;SDS011;11702;50.856;4.348;2022-11-24T02:11:43;21.77;;;4.63;;
23068;SDS011;11702;50.856;4.348;2022-11-24T02:14:11;27.65;;;5.57;;
23068;SDS011;11702;50.856;4.348;2022-11-24T02:16:39;26.55;;;4.22;;
23068;SDS011;11702;50.856;4.348;2022-11-24T02:19:22;31.33;;;5.63;;
23068;SDS011;11702;50.856;4.348;2022-11-24T02:22:01;29.13;;;5.10;;
23068;SDS011;11702;50.856;4.348;2022-11-24T02:24:36;20.33;;;4.53;;
23068;SDS011;11702;50.856;4.348;2022-11-24T02:27:12;24.52;;;5.10;;
23068;SDS011;11702;50.856;4.348;2022-11-24T02:29:37;27.95;;;4.40;;
23068;SDS011;11702;50.856;4.348;2022-11-24T02:32:05;26.58;;;4.80;;
23068;SDS011;11702;50.856;4.348;2022-11-24T02:34:33;24.92;;;4.80;;
23068;SDS011;11702;50.856;4.348;2022-11-24T02:36:58;24.17;;;4.25;;
23068;SDS011;11702;50.856;4.348;2022-11-24T02:39:24;27.63;;;5.97;;
23068;SDS011;11702;50.856;4.348;2022-11-24T02:41:53;30.40;;;7.07;;
23068;SDS011;11702;50.856;4.348;2022-11-24T02:44:23;24.48;;;4.20;;
23068;SDS011;11702;50.856;4.348;2022-11-24T02:47:08;22.65;;;4.85;;
23068;SDS011;11702;50.856;4.348;2022-11-24T02:49:35;19.88;;;4.32;;
23068;SDS011;11702;50.856;4.348;2022-11-24T02:52:00;32.88;;;5.22;;
23068;SDS011;11702;50.856;4.348;2022-11-24T02:54:27;24.23;;;4.93;;
23068;SDS011;11702;50.856;4.348;2022-11-24T02:56:52;28.95;;;4.82;;
23068;SDS011;11702;50.856;4.348;2022-11-24T02:59:18;28.73;;;6.70;;
23068;SDS011;11702;50.856;4.348;2022-11-24T03:01:44;29.85;;;5.13;;
23068;SDS011;11702;50.856;4.348;2022-11-24T03:04:10;25.05;;;6.32;;
23068;SDS011;11702;50.856;4.348;2022-11-24T03:06:35;23.77;;;4.32;;
23068;SDS011;11702;50.856;4.348;2022-11-24T03:09:02;21.88;;;4.75;;
23068;SDS011;11702;50.856;4.348;2022-11-24T03:11:28;22.83;;;4.43;;
23068;SDS011;11702;50.856;4.348;2022-11-24T03:13:53;31.60;;;5.25;;
23068;SDS011;11702;50.856;4.348;2022-11-24T03:16:19;19.02;;;3.80;;
23068;SDS011;11702;50.856;4.348;2022-11-24T03:18:45;30.05;;;4.88;;
23068;SDS011;11702;50.856;4.348;2022-11-24T03:21:12;20.48;;;5.15;;
23068;SDS011;11702;50.856;4.348;2022-11-24T03:23:38;24.92;;;4.55;;
23068;SDS011;11702;50.856;4.348;2022-11-24T03:26:07;27.40;;;4.10;;
23068;SDS011;11702;50.856;4.348;2022-11-24T03:28:36;22.58;;;3.67;;
23068;SDS011;11702;50.856;4.348;2022-11-24T03:31:02;18.13;;;3.72;;
23068;SDS011;11702;50.856;4.348;2022-11-24T03:33:28;15.85;;;3.67;;
23068;SDS011;11702;50.856;4.348;2022-11-24T03:35:53;19.92;;;3.53;;
23068;SDS011;11702;50.856;4.348;2022-11-24T03:38:19;16.75;;;3.25;;
23068;SDS011;11702;50.856;4.348;2022-11-24T03:40:45;19.88;;;3.20;;
23068;SDS011;11702;50.856;4.348;2022-11-24T03:43:11;12.65;;;2.85;;
23068;SDS011;11702;50.856;4.348;2022-11-24T03:45:36;14.27;;;3.60;;
23068;SDS011;11702;50.856;4.348;2022-11-24T03:48:02;9.88;;;2.35;;
23068;SDS011;11702;50.856;4.348;2022-11-24T03:50:28;9.10;;;2.40;;
23068;SDS011;11702;50.856;4.348;2022-11-24T03:52:53;13.18;;;2.22;;
23068;SDS011;11702;50.856;4.348;2022-11-24T03:55:19;19.13;;;2.60;;
23068;SDS011;11702;50.856;4.348;2022-11-24T03:57:44;8.65;;;1.85;;
23068;SDS011;11702;50.856;4.348;2022-11-24T04:00:10;9.02;;;1.83;;
23068;SDS011;11702;50.856;4.348;2022-11-24T04:02:36;8.10;;;1.98;;
23068;SDS011;11702;50.856;4.348;2022-11-24T04:05:02;6.93;;;1.67;;
23068;SDS011;11702;50.856;4.348;2022-11-24T04:07:28;6.80;;;1.75;;
23068;SDS011;11702;50.856;4.348;2022-11-24T04:09:54;8.95;;;1.70;;
23068;SDS011;11702;50.856;4.348;2022-11-24T04:12:19;8.77;;;1.90;;
23068;SDS011;11702;50.856;4.348;2022-11-24T04:15:04;6.78;;;1.70;;
23068;SDS011;11702;50.856;4.348;2022-11-24T04:17:29;7.88;;;1.88;;
23068;SDS011;11702;50.856;4.348;2022-11-24T04:19:55;13.55;;;1.98;;
23068;SDS011;11702;50.856;4.348;2022-11-24T04:22:21;4.93;;;1.80;;
23068;SDS011;11702;50.856;4.348;2022-11-24T04:24:46;7.97;;;1.60;;
23068;SDS011;11702;50.856;4.348;2022-11-24T04:27:12;8.63;;;1.80;;
23068;SDS011;11702;50.856;4.348;2022-11-24T04:29:37;7.57;;;1.48;;
23068;SDS011;11702;50.856;4.348;2022-11-24T04:32:03;7.47;;;1.50;;
23068;SDS011;11702;50.856;4.348;2022-11-24T04:34:29;9.00;;;1.60;;
23068;SDS011;11702;50.856;4.348;2022-11-24T04:36:55;7.80;;;1.58;;
23068;SDS011;11702;50.856;4.348;2022-11-24T04:39:20;3.20;;;1.30;;
23068;SDS011;11702;50.856;4.348;2022-11-24T04:41:46;5.70;;;1.45;;
23068;SDS011;11702;50.856;4.348;2022-11-24T04:44:12;5.57;;;1.20;;
23068;SDS011;11702;50.856;4.348;2022-11-24T04:46:39;3.72;;;1.08;;
23068;SDS011;11702;50.856;4.348;2022-11-24T04:49:05;3.70;;;1.15;;
23068;SDS011;11702;50.856;4.348;2022-11-24T04:51:30;4.65;;;1.27;;
23068;SDS011;11702;50.856;4.348;2022-11-24T04:53:56;3.83;;;1.90;;
23068;SDS011;11702;50.856;4.348;2022-11-24T04:56:21;6.07;;;1.30;;
23068;SDS011;11702;50.856;4.348;2022-11-24T04:58:47;7.95;;;1.10;;
23068;SDS011;11702;50.856;4.348;2022-11-24T05:01:13;5.00;;;1.08;;
23068;SDS011;11702;50.856;4.348;2022-11-24T05:03:39;7.53;;;1.27;;
23068;SDS011;11702;50.856;4.348;2022-11-24T05:06:05;6.97;;;1.17;;
23068;SDS011;11702;50.856;4.348;2022-11-24T05:08:32;3.88;;;1.00;;
23068;SDS011;11702;50.856;4.348;2022-11-24T05:11:02;3.60;;;1.40;;
23068;SDS011;11702;50.856;4.348;2022-11-24T05:13:28;3.65;;;1.50;;
23068;SDS011;11702;50.856;4.348;2022-11-24T05:15:54;7.43;;;1.88;;
23068;SDS011;11702;50.856;4.348;2022-11-24T05:18:20;5.20;;;1.13;;
23068;SDS011;11702;50.856;4.348;2022-11-24T05:20:47;7.30;;;2.00;;
23068;SDS011;11702;50.856;4.348;2022-11-24T05:23:13;5.05;;;1.30;;
23068;SDS011;11702;50.856;4.348;2022-11-24T05:25:39;3.15;;;1.13;;
23068;SDS011;11702;50.856;4.348;2022-11-24T05:28:06;6.30;;;1.15;;
23068;SDS011;11702;50.856;4.348;2022-11-24T05:30:35;7.00;;;1.50;;
23068;SDS011;11702;50.856;4.348;2022-11-24T05:33:04;4.97;;;1.20;;
23068;SDS011;11702;50.856;4.348;2022-11-24T05:35:36;6.28;;;1.70;;
23068;SDS011;11702;50.856;4.348;2022-11-24T05:38:03;3.38;;;1.27;;
23068;SDS011;11702;50.856;4.348;2022-11-24T05:40:29;9.68;;;1.83;;
23068;SDS011;11702;50.856;4.348;2022-11-24T05:42:55;7.82;;;1.60;;
23068;SDS011;11702;50.856;4.348;2022-11-24T05:45:21;13.50;;;2.40;;
23068;SDS011;11702;50.856;4.348;2022-11-24T05:47:48;7.28;;;1.83;;
23068;SDS011;11702;50.856;4.348;2022-11-24T05:50:16;6.35;;;1.92;;
23068;SDS011;11702;50.856;4.348;2022-11-24T05:52:43;10.98;;;2.08;;
23068;SDS011;11702;50.856;4.348;2022-11-24T05:55:09;9.50;;;1.92;;
23068;SDS011;11702;50.856;4.348;2022-11-24T05:57:35;8.32;;;2.00;;
23068;SDS011;11702;50.856;4.348;2022-11-24T06:00:03;9.00;;;1.60;;
23068;SDS011;11702;50.856;4.348;2022-11-24T06:02:30;6.80;;;1.70;;
23068;SDS011;11702;50.856;4.348;2022-11-24T06:04:56;15.30;;;2.30;;
23068;SDS011;11702;50.856;4.348;2022-11-24T06:07:22;11.43;;;2.35;;
23068;SDS011;11702;50.856;4.348;2022-11-24T06:09:47;12.38;;;2.47;;
23068;SDS011;11702;50.856;4.348;2022-11-24T06:12:13;11.00;;;2.40;;
23068;SDS011;11702;50.856;4.348;2022-11-24T06:14:39;11.55;;;2.85;;
23068;SDS011;11702;50.856;4.348;2022-11-24T06:17:05;9.38;;;2.92;;
23068;SDS011;11702;50.856;4.348;2022-11-24T06:19:30;15.73;;;2.97;;
23068;SDS011;11702;50.856;4.348;2022-11-24T06:21:56;14.82;;;2.33;;
23068;SDS011;11702;50.856;4.348;2022-11-24T06:24:22;15.00;;;2.92;;
23068;SDS011;11702;50.856;4.348;2022-11-24T06:26:47;14.95;;;3.17;;
23068;SDS011;11702;50.856;4.348;2022-11-24T06:29:13;19.38;;;4.15;;
23068;SDS011;11702;50.856;4.348;2022-11-24T06:31:39;18.50;;;3.10;;
23068;SDS011;11702;50.856;4.348;2022-11-24T06:34:06;12.98;;;3.40;;
23068;SDS011;11702;50.856;4.348;2022-11-24T06:36:34;22.50;;;3.10;;
23068;SDS011;11702;50.856;4.348;2022-11-24T06:39:00;16.13;;;3.25;;
23068;SDS011;11702;50.856;4.348;2022-11-24T06:41:27;19.55;;;3.88;;
23068;SDS011;11702;50.856;4.348;2022-11-24T06:43:53;13.93;;;3.10;;
23068;SDS011;11702;50.856;4.348;2022-11-24T06:46:19;10.32;;;2.70;;
23068;SDS011;11702;50.856;4.348;2022-11-24T06:48:45;20.83;;;3.70;;
23068;SDS011;11702;50.856;4.348;2022-11-24T06:51:11;21.83;;;3.35;;
23068;SDS011;11702;50.856;4.348;2022-11-24T06:53:37;15.65;;;3.60;;
23068;SDS011;11702;50.856;4.348;2022-11-24T06:56:05;19.60;;;3.08;;
23068;SDS011;11702;50.856;4.348;2022-11-24T06:58:39;14.98;;;3.47;;
23068;SDS011;11702;50.856;4.348;2022-11-24T07:01:06;15.90;;;3.40;;
23068;SDS011;11702;50.856;4.348;2022-11-24T07:03:31;13.65;;;3.17;;
23068;SDS011;11702;50.856;4.348;2022-11-24T07:05:57;14.40;;;2.88;;
23068;SDS011;11702;50.856;4.348;2022-11-24T07:08:23;16.92;;;3.70;;
23068;SDS011;11702;50.856;4.348;2022-11-24T07:10:49;23.08;;;3.45;;
23068;SDS011;11702;50.856;4.348;2022-11-24T07:13:16;12.40;;;2.55;;
23068;SDS011;11702;50.856;4.348;2022-11-24T07:15:43;14.57;;;4.28;;
23068;SDS011;11702;50.856;4.348;2022-11-24T07:18:08;10.93;;;2.80;;
23068;SDS011;11702;50.856;4.348;2022-11-24T07:20:34;15.95;;;2.90;;
23068;SDS011;11702;50.856;4.348;2022-11-24T07:22:59;16.00;;;3.22;;
23068;SDS011;11702;50.856;4.348;2022-11-24T07:25:25;14.85;;;2.67;;
23068;SDS011;11702;50.856;4.348;2022-11-24T07:27:55;18.00;;;2.83;;
23068;SDS011;11702;50.856;4.348;2022-11-24T07:30:22;12.52;;;3.05;;
23068;SDS011;11702;50.856;4.348;2022-11-24T07:32:48;16.15;;;2.92;;
23068;SDS011;11702;50.856;4.348;2022-11-24T07:35:13;13.02;;;3.13;;
23068;SDS011;11702;50.856;4.348;2022-11-24T07:37:39;13.30;;;2.78;;
23068;SDS011;11702;50.856;4.348;2022-11-24T07:40:04;13.85;;;2.70;;
23068;SDS011;11702;50.856;4.348;2022-11-24T07:42:31;19.27;;;3.25;;
23068;SDS011;11702;50.856;4.348;2022-11-24T07:44:56;10.75;;;2.33;;
23068;SDS011;11702;50.856;4.348;2022-11-24T07:47:22;12.90;;;2.45;;
23068;SDS011;11702;50.856;4.348;2022-11-24T07:49:47;13.05;;;2.30;;
23068;SDS011;11702;50.856;4.348;2022-11-24T07:52:13;13.32;;;2.47;;
23068;SDS011;11702;50.856;4.348;2022-11-24T07:54:38;13.18;;;2.55;;
23068;SDS011;11702;50.856;4.348;2022-11-24T07:57:04;19.52;;;3.80;;
23068;SDS011;11702;50.856;4.348;2022-11-24T07:59:30;15.63;;;2.53;;
23068;SDS011;11702;50.856;4.348;2022-11-24T08:01:55;14.95;;;3.42;;
23068;SDS011;11702;50.856;4.348;2022-11-24T08:04:21;12.00;;;2.50;;
23068;SDS011;11702;50.856;4.348;2022-11-24T08:06:46;12.93;;;3.42;;
23068;SDS011;11702;50.856;4.348;2022-11-24T08:09:12;13.18;;;2.50;;
23068;SDS011;11702;50.856;4.348;2022-11-24T08:11:38;14.98;;;2.80;;
23068;SDS011;11702;50.856;4.348;2022-11-24T08:14:03;15.45;;;2.60;;
23068;SDS011;11702;50.856;4.348;2022-11-24T08:16:29;12.63;;;2.83;;
23068;SDS011;11702;50.856;4.348;2022-11-24T08:18:55;11.07;;;2.10;;
23068;SDS011;11702;50.856;4.348;2022-11-24T08:21:21;17.90;;;2.35;;
23068;SDS011;11702;50.856;4.348;2022-11-24T08:23:48;12.95;;;2.40;;
23068;SDS011;11702;50.856;4.348;2022-11-24T08:26:20;11.77;;;2.85;;
23068;SDS011;11702;50.856;4.348;2022-11-24T08:28:46;16.35;;;2.78;;
23068;SDS011;11702;50.856;4.348;2022-11-24T08:31:16;18.90;;;2.78;;
23068;SDS011;11702;50.856;4.348;2022-11-24T08:33:45;12.23;;;2.40;;
23068;SDS011;11702;50.856;4.348;2022-11-24T08:36:12;8.75;;;2.42;;
23068;SDS011;11702;50.856;4.348;2022-11-24T08:38:40;11.43;;;2.72;;
23068;SDS011;11702;50.856;4.348;2022-11-24T08:41:07;14.45;;;3.67;;
23068;SDS011;11702;50.856;4.348;2022-11-24T08:43:34;14.82;;;3.53;;
23068;SDS011;11702;50.856;4.348;2022-11-24T08:46:11;11.80;;;2.35;;
23068;SDS011;11702;50.856;4.348;2022-11-24T08:48:38;14.00;;;2.83;;
23068;SDS011;11702;50.856;4.348;2022-11-24T08:51:07;13.82;;;2.72;;
23068;SDS011;11702;50.856;4.348;2022-11-24T08:53:35;11.80;;;2.72;;
23068;SDS011;11702;50.856;4.348;2022-11-24T08:56:01;12.52;;;2.75;;
23068;SDS011;11702;50.856;4.348;2022-11-24T08:58:28;13.48;;;2.58;;
23068;SDS011;11702;50.856;4.348;2022-11-24T09:00:54;10.77;;;2.22;;
23068;SDS011;11702;50.856;4.348;2022-11-24T09:03:27;17.52;;;3.08;;
23068;SDS011;11702;50.856;4.348;2022-11-24T09:05:52;13.55;;;3.03;;
23068;SDS011;11702;50.856;4.348;2022-11-24T09:08:18;16.20;;;3.17;;
23068;SDS011;11702;50.856;4.348;2022-11-24T09:10:44;11.80;;;2.50;;
23068;SDS011;11702;50.856;4.348;2022-11-24T09:13:10;14.25;;;2.50;;
23068;SDS011;11702;50.856;4.348;2022-11-24T09:15:37;7.93;;;2.65;;
23068;SDS011;11702;50.856;4.348;2022-11-24T09:18:02;12.77;;;2.60;;
23068;SDS011;11702;50.856;4.348;2022-11-24T09:20:29;16.67;;;3.47;;
23068;SDS011;11702;50.856;4.348;2022-11-24T09:22:55;14.50;;;2.70;;
23068;SDS011;11702;50.856;4.348;2022-11-24T09:25:21;11.93;;;2.45;;
23068;SDS011;11702;50.856;4.348;2022-11-24T09:27:47;11.57;;;2.55;;
23068;SDS011;11702;50.856;4.348;2022-11-24T09:30:14;17.15;;;3.15;;
23068;SDS011;11702;50.856;4.348;2022-11-24T09:32:39;13.32;;;2.70;;
23068;SDS011;11702;50.856;4.348;2022-11-24T09:35:05;12.95;;;3.50;;
23068;SDS011;11702;50.856;4.348;2022-11-24T09:37:31;18.67;;;3.53;;
23068;SDS011;11702;50.856;4.348;2022-11-24T09:39:57;19.92;;;3.75;;
23068;SDS011;11702;50.856;4.348;2022-11-24T09:50:32;12.80;;;2.55;;
23068;SDS011;11702;50.856;4.348;2022-11-24T09:53:02;8.88;;;2.28;;
23068;SDS011;11702;50.856;4.348;2022-11-24T09:55:46;13.40;;;3.03;;
23068;SDS011;11702;50.856;4.348;2022-11-24T09:58:34;13.75;;;3.40;;
23068;SDS011;11702;50.856;4.348;2022-11-24T10:01:11;12.48;;;2.67;;
23068;SDS011;11702;50.856;4.348;2022-11-24T10:03:48;15.60;;;3.45;;
23068;SDS011;11702;50.856;4.348;2022-11-24T10:11:37;15.98;;;3.15;;
23068;SDS011;11702;50.856;4.348;2022-11-24T10:19:13;14.45;;;3.17;;
23068;SDS011;11702;50.856;4.348;2022-11-24T10:27:25;23.95;;;3.58;;
23068;SDS011;11702;50.856;4.348;2022-11-24T10:29:57;15.98;;;3.47;;
23068;SDS011;11702;50.856;4.348;2022-11-24T10:32:34;19.73;;;3.65;;
23068;SDS011;11702;50.856;4.348;2022-11-24T10:35:12;20.75;;;3.97;;
23068;SDS011;11702;50.856;4.348;2022-11-24T10:37:56;19.65;;;4.10;;
23068;SDS011;11702;50.856;4.348;2022-11-24T10:40:38;19.45;;;3.63;;
23068;SDS011;11702;50.856;4.348;2022-11-24T10:43:09;11.80;;;3.10;;
23068;SDS011;11702;50.856;4.348;2022-11-24T10:45:35;18.20;;;3.20;;
23068;SDS011;11702;50.856;4.348;2022-11-24T10:48:05;13.13;;;3.28;;
23068;SDS011;11702;50.856;4.348;2022-11-24T10:50:52;11.93;;;3.47;;
23068;SDS011;11702;50.856;4.348;2022-11-24T10:53:35;18.00;;;3.53;;
23068;SDS011;11702;50.856;4.348;2022-11-24T10:56:05;14.02;;;3.60;;
23068;SDS011;11702;50.856;4.348;2022-11-24T10:58:32;18.35;;;3.50;;
23068;SDS011;11702;50.856;4.348;2022-11-24T11:03:44;14.95;;;3.55;;
23068;SDS011;11702;50.856;4.348;2022-11-24T11:06:22;15.38;;;3.00;;
23068;SDS011;11702;50.856;4.348;2022-11-24T11:11:30;12.77;;;3.35;;
23068;SDS011;11702;50.856;4.348;2022-11-24T11:14:01;24.13;;;3.42;;
23068;SDS011;11702;50.856;4.348;2022-11-24T11:16:32;13.30;;;3.00;;
23068;SDS011;11702;50.856;4.348;2022-11-24T11:23:57;19.38;;;3.13;;
23068;SDS011;11702;50.856;4.348;2022-11-24T11:36:33;29.00;;;4.40;;
23068;SDS011;11702;50.856;4.348;2022-11-24T11:41:52;13.35;;;3.22;;
23068;SDS011;11702;50.856;4.348;2022-11-24T11:44:46;20.63;;;4.07;;
23068;SDS011;11702;50.856;4.348;2022-11-24T11:47:14;19.30;;;4.80;;
23068;SDS011;11702;50.856;4.348;2022-11-24T11:49:49;16.98;;;3.75;;
23068;SDS011;11702;50.856;4.348;2022-11-24T12:00:21;16.85;;;3.95;;
23068;SDS011;11702;50.856;4.348;2022-11-24T12:02:52;13.82;;;3.60;;
23068;SDS011;11702;50.856;4.348;2022-11-24T12:14:23;15.10;;;3.15;;
23068;SDS011;11702;50.856;4.348;2022-11-24T12:17:16;13.45;;;3.20;;
23068;SDS011;11702;50.856;4.348;2022-11-24T12:22:55;15.38;;;4.15;;
23068;SDS011;11702;50.856;4.348;2022-11-24T12:25:38;17.98;;;3.28;;
23068;SDS011;11702;50.856;4.348;2022-11-24T12:28:22;21.58;;;4.40;;
23068;SDS011;11702;50.856;4.348;2022-11-24T12:33:54;14.35;;;2.72;;
23068;SDS011;11702;50.856;4.348;2022-11-24T12:36:37;19.00;;;3.10;;
23068;SDS011;11702;50.856;4.348;2022-11-24T12:39:27;15.75;;;3.75;;
23068;SDS011;11702;50.856;4.348;2022-11-24T12:50:17;21.42;;;3.45;;
23068;SDS011;11702;50.856;4.348;2022-11-24T12:55:35;14.27;;;3.45;;
23068;SDS011;11702;50.856;4.348;2022-11-24T13:08:39;14.52;;;4.65;;
23068;SDS011;11702;50.856;4.348;2022-11-24T13:16:55;16.23;;;3.33;;
23068;SDS011;11702;50.856;4.348;2022-11-24T13:19:33;15.38;;;3.40;;
23068;SDS011;11702;50.856;4.348;2022-11-24T13:22:01;14.25;;;3.53;;
23068;SDS011;11702;50.856;4.348;2022-11-24T13:24:31;22.73;;;3.83;;
23068;SDS011;11702;50.856;4.348;2022-11-24T13:29:43;16.77;;;3.38;;
23068;SDS011;11702;50.856;4.348;2022-11-24T13:42:16;24.75;;;3.53;;
23068;SDS011;11702;50.856;4.348;2022-11-24T13:45:04;20.02;;;4.13;;
23068;SDS011;11702;50.856;4.348;2022-11-24T13:47:50;18.43;;;4.07;;
23068;SDS011;11702;50.856;4.348;2022-11-24T13:55:31;14.10;;;3.75;;
23068;SDS011;11702;50.856;4.348;2022-11-24T13:58:03;9.65;;;2.78;;
23068;SDS011;11702;50.856;4.348;2022-11-24T14:00:34;20.00;;;3.78;;
23068;SDS011;11702;50.856;4.348;2022-11-24T14:03:17;18.58;;;3.78;;
23068;SDS011;11702;50.856;4.348;2022-11-24T14:05:50;15.20;;;3.80;;
23068;SDS011;11702;50.856;4.348;2022-11-24T14:08:18;19.42;;;3.10;;
23068;SDS011;11702;50.856;4.348;2022-11-24T14:11:14;16.58;;;3.05;;
23068;SDS011;11702;50.856;4.348;2022-11-24T14:13:41;22.27;;;4.07;;
23068;SDS011;11702;50.856;4.348;2022-11-24T14:16:17;18.40;;;3.45;;
23068;SDS011;11702;50.856;4.348;2022-11-24T14:18:48;18.00;;;3.65;;
23068;SDS011;11702;50.856;4.348;2022-11-24T14:23:59;13.25;;;3.95;;
23068;SDS011;11702;50.856;4.348;2022-11-24T14:26:32;20.77;;;4.65;;
23068;SDS011;11702;50.856;4.348;2022-11-24T14:29:04;15.57;;;4.05;;
23068;SDS011;11702;50.856;4.348;2022-11-24T14:31:41;15.30;;;4.38;;
23068;SDS011;11702;50.856;4.348;2022-11-24T14:34:19;20.98;;;3.95;;
23068;SDS011;11702;50.856;4.348;2022-11-24T14:39:13;18.77;;;3.58;;
23068;SDS011;11702;50.856;4.348;2022-11-24T14:41:42;18.45;;;3.38;;
23068;SDS011;11702;50.856;4.348;2022-11-24T14:44:17;18.60;;;4.60;;
23068;SDS011;11702;50.856;4.348;2022-11-24T14:46:48;19.02;;;4.43;;
23068;SDS011;11702;50.856;4.348;2022-11-24T14:49:18;17.58;;;4.88;;
23068;SDS011;11702;50.856;4.348;2022-11-24T14:51:47;19.58;;;4.53;;
23068;SDS011;11702;50.856;4.348;2022-11-24T14:54:18;18.08;;;3.70;;
23068;SDS011;11702;50.856;4.348;2022-11-24T14:57:01;18.17;;;4.25;;
23068;SDS011;11702;50.856;4.348;2022-11-24T14:59:29;19.00;;;3.55;;
23068;SDS011;11702;50.856;4.348;2022-11-24T15:01:58;18.80;;;4.05;;
23068;SDS011;11702;50.856;4.348;2022-11-24T15:04:25;17.27;;;4.07;;
23068;SDS011;11702;50.856;4.348;2022-11-24T15:07:03;15.82;;;3.65;;
23068;SDS011;11702;50.856;4.348;2022-11-24T15:15:00;18.80;;;3.65;;
23068;SDS011;11702;50.856;4.348;2022-11-24T15:17:29;17.35;;;3.97;;
23068;SDS011;11702;50.856;4.348;2022-11-24T15:19:56;18.55;;;3.42;;
23068;SDS011;11702;50.856;4.348;2022-11-24T15:22:34;17.17;;;4.25;;
23068;SDS011;11702;50.856;4.348;2022-11-24T15:25:24;21.40;;;4.13;;
23068;SDS011;11702;50.856;4.348;2022-11-24T15:28:00;20.90;;;3.88;;
23068;SDS011;11702;50.856;4.348;2022-11-24T15:30:25;17.75;;;3.47;;
23068;SDS011;11702;50.856;4.348;2022-11-24T15:32:53;17.70;;;3.70;;
23068;SDS011;11702;50.856;4.348;2022-11-24T15:35:20;21.05;;;4.20;;
23068;SDS011;11702;50.856;4.348;2022-11-24T15:37:46;20.95;;;4.90;;
23068;SDS011;11702;50.856;4.348;2022-11-24T15:40:13;20.65;;;3.80;;
23068;SDS011;11702;50.856;4.348;2022-11-24T15:42:39;22.52;;;4.10;;
23068;SDS011;11702;50.856;4.348;2022-11-24T15:45:05;22.75;;;3.72;;
23068;SDS011;11702;50.856;4.348;2022-11-24T15:47:31;13.90;;;3.35;;
23068;SDS011;11702;50.856;4.348;2022-11-24T15:49:57;18.83;;;4.32;;
23068;SDS011;11702;50.856;4.348;2022-11-24T15:52:25;19.95;;;4.45;;
23068;SDS011;11702;50.856;4.348;2022-11-24T15:54:51;19.63;;;4.53;;
23068;SDS011;11702;50.856;4.348;2022-11-24T15:57:20;26.10;;;4.70;;
23068;SDS011;11702;50.856;4.348;2022-11-24T15:59:45;18.75;;;4.07;;
23068;SDS011;11702;50.856;4.348;2022-11-24T16:02:11;18.70;;;3.80;;
23068;SDS011;11702;50.856;4.348;2022-11-24T16:04:36;14.32;;;4.32;;
23068;SDS011;11702;50.856;4.348;2022-11-24T16:07:07;19.90;;;5.13;;
23068;SDS011;11702;50.856;4.348;2022-11-24T16:09:36;21.83;;;4.80;;
23068;SDS011;11702;50.856;4.348;2022-11-24T16:12:02;16.35;;;3.63;;
23068;SDS011;11702;50.856;4.348;2022-11-24T16:14:28;14.50;;;3.67;;
23068;SDS011;11702;50.856;4.348;2022-11-24T16:16:55;17.45;;;3.88;;
23068;SDS011;11702;50.856;4.348;2022-11-24T16:19:20;15.20;;;3.60;;
23068;SDS011;11702;50.856;4.348;2022-11-24T16:21:47;18.23;;;3.95;;
23068;SDS011;11702;50.856;4.348;2022-11-24T16:24:13;20.48;;;4.63;;
23068;SDS011;11702;50.856;4.348;2022-11-24T16:26:39;18.58;;;4.10;;
23068;SDS011;11702;50.856;4.348;2022-11-24T16:29:05;22.77;;;3.80;;
23068;SDS011;11702;50.856;4.348;2022-11-24T16:31:30;22.38;;;4.10;;
23068;SDS011;11702;50.856;4.348;2022-11-24T16:33:56;14.70;;;4.15;;
23068;SDS011;11702;50.856;4.348;2022-11-24T16:36:22;17.17;;;3.30;;
23068;SDS011;11702;50.856;4.348;2022-11-24T16:38:48;19.10;;;4.75;;
23068;SDS011;11702;50.856;4.348;2022-11-24T16:41:13;17.20;;;4.65;;
23068;SDS011;11702;50.856;4.348;2022-11-24T16:43:40;19.25;;;4.25;;
23068;SDS011;11702;50.856;4.348;2022-11-24T16:46:19;16.30;;;4.20;;
23068;SDS011;11702;50.856;4.348;2022-11-24T16:48:46;15.70;;;5.33;;
23068;SDS011;11702;50.856;4.348;2022-11-24T16:51:18;20.08;;;5.00;;